Skip Navigation

Christman Field Latest Observations

Switch to metric unitsOther observation timesWeekly graphs

Date Time
MST
Temp
°F
RH
%
DewPt
°F
Wind
mph
Dir
°
Gust
mph
Dir
°
Press
in Hg
Solar
W/m^2
Prec
in
2019-11-15 08:25 33.9 83.5 29.5 3.0 259 5.0 250 24.946 105.1 0.00
2019-11-15 08:20 33.2 86.5 29.6 3.7 239 5.1 234 24.950 98.4 0.00
2019-11-15 08:15 32.8 86.6 29.2 3.1 358 4.1 1 24.948 89.3 0.00
2019-11-15 08:10 32.5 87.9 29.3 1.0 324 3.1 353 24.950 79.2 0.00
2019-11-15 08:05 32.5 86.7 29.0 3.2 356 5.7 356 24.950 69.7 0.00
2019-11-15 08:00 32.4 85.6 28.5 0.8 321 3.4 321 24.950 61.5 0.00
2019-11-15 07:55 32.3 84.7 28.2 2.6 321 3.4 321 24.950 54.4 0.00
2019-11-15 07:50 32.7 83.5 28.3 2.7 341 5.0 322 24.949 48.3 0.00
2019-11-15 07:45 33.4 82.3 28.5 1.5 351 4.1 338 24.945 43.7 0.00
2019-11-15 07:40 34.0 81.1 28.8 0.9 339 4.3 339 24.942 40.6 0.00
2019-11-15 07:35 34.7 80.9 29.4 0.3 72 1.3 131 24.939 43.0 0.00
2019-11-15 07:30 34.5 78.5 28.5 2.0 131 4.6 119 24.937 45.5 0.00
2019-11-15 07:25 32.9 80.5 27.6 5.1 13 11.1 317 24.937 46.4 0.00
2019-11-15 07:20 32.1 84.9 28.1 3.1 143 6.1 304 24.932 52.3 0.00
2019-11-15 07:15 31.7 86.9 28.3 3.8 148 5.6 148 24.931 40.1 0.00
2019-11-15 07:10 31.8 83.5 27.3 3.4 197 5.2 166 24.931 28.9 0.00
2019-11-15 07:05 31.1 87.0 27.6 3.2 166 5.2 167 24.933 22.6 0.00
2019-11-15 07:00 30.6 84.9 26.6 3.3 233 4.6 226 24.930 15.5 0.00
2019-11-15 06:55 30.0 83.2 25.6 3.2 166 4.9 148 24.926 9.4 0.00
2019-11-15 06:50 28.3 88.1 25.2 3.8 157 7.1 180 24.926 3.4 0.00
2019-11-15 06:45 28.5 84.5 24.4 2.2 348 4.6 349 24.932 2.3 0.00
2019-11-15 06:40 28.5 86.0 24.8 2.2 350 5.9 16 24.930 3.3 0.00
2019-11-15 06:35 29.3 81.4 24.4 1.7 245 3.1 241 24.930 1.2 0.00
2019-11-15 06:30 29.3 84.2 25.1 2.2 287 4.2 286 24.934 0.2 0.00
2019-11-15 06:25 29.5 81.8 24.6 1.3 239 3.9 225 24.933 0.2 0.00
2019-11-15 06:20 29.4 83.0 24.8 3.4 326 4.9 330 24.934 0.0 0.00
2019-11-15 06:15 29.9 83.3 25.4 3.0 239 5.1 340 24.932 0.0 0.00
2019-11-15 06:10 30.1 84.9 26.1 2.4 337 4.8 337 24.933 0.0 0.00
2019-11-15 06:05 30.5 83.9 26.2 3.0 345 5.2 1 24.936 0.0 0.00
2019-11-15 06:00 29.4 88.0 26.3 0.7 30 1.8 30 24.935 0.0 0.00